Time;durP1;ratioP1;P1;durP2;ratioP2;P2;SDS_P1;SDS_P2;PMS_P1;PMS_P2;Temp;Humidity;BMP_temperature;BMP_pressure;BME280_temperature;BME280_humidity;BME280_pressure;Samples;Min_cycle;Max_cycle;Signal;HPM_P1;HPM_P2
2022/08/15 00:01:12;;;;;;;9.25;2.95;;;;;;;;;;4245787;33;20132;-61
2022/08/15 00:03:41;;;;;;;7.93;2.87;;;;;;;;;;4247664;33;20124;-61
2022/08/15 00:34:35;;;;;;;6.82;3.22;;;;;;;;;;4754339;27;20100;-62
2022/08/15 00:37:02;;;;;;;6.82;3.15;;;;;;;;;;4258705;33;20444;-61
2022/08/15 00:39:28;;;;;;;6.70;3.10;;;;;;;;;;4247856;33;20164;-61
2022/08/15 00:41:57;;;;;;;7.22;3.28;;;;;;;;;;4260774;33;20501;-69
2022/08/15 00:44:34;;;;;;;10.73;3.70;;;;;;;;;;4259518;33;20101;-70
2022/08/15 00:47:08;;;;;;;8.50;3.45;;;;;;;;;;4247315;33;20575;-69
2022/08/15 00:49:35;;;;;;;12.40;3.83;;;;;;;;;;4246306;33;20146;-69
2022/08/15 00:52:14;;;;;;;11.43;4.62;;;;;;;;;;4247292;33;20266;-69
2022/08/15 00:55:06;;;;;;;8.63;4.07;;;;;;;;;;4248413;33;20187;-61
2022/08/15 00:57:38;;;;;;;11.82;4.25;;;;;;;;;;4248011;33;20609;-60
2022/08/15 01:00:14;;;;;;;14.07;4.95;;;;;;;;;;4261350;33;20207;-61
2022/08/15 01:02:41;;;;;;;12.70;4.10;;;;;;;;;;4261493;33;20115;-61
2022/08/15 01:05:09;;;;;;;8.13;4.18;;;;;;;;;;4261374;33;20187;-61
2022/08/15 01:07:35;;;;;;;7.20;4.28;;;;;;;;;;4261182;33;20512;-62
2022/08/15 01:10:02;;;;;;;22.50;5.85;;;;;;;;;;4258494;33;20215;-61
2022/08/15 01:12:28;;;;;;;10.65;5.00;;;;;;;;;;4246989;33;20741;-61
2022/08/15 01:14:58;;;;;;;12.43;4.25;;;;;;;;;;4247338;33;20188;-60
2022/08/15 01:17:26;;;;;;;12.50;4.40;;;;;;;;;;4247035;33;20444;-69
2022/08/15 01:20:06;;;;;;;9.50;4.22;;;;;;;;;;4247343;33;20136;-69
2022/08/15 01:23:10;;;;;;;11.05;4.00;;;;;;;;;;4246956;33;20116;-69
2022/08/15 01:25:42;;;;;;;10.15;4.07;;;;;;;;;;4246808;33;20117;-69
2022/08/15 01:28:17;;;;;;;17.15;4.07;;;;;;;;;;4245613;33;20124;-69
2022/08/15 01:30:49;;;;;;;7.15;3.42;;;;;;;;;;4246832;33;20238;-69
2022/08/15 01:33:15;;;;;;;7.50;3.95;;;;;;;;;;4245621;33;20139;-69
2022/08/15 01:35:42;;;;;;;7.53;3.72;;;;;;;;;;4246761;33;20493;-69
2022/08/15 01:38:50;;;;;;;6.62;3.30;;;;;;;;;;4247660;33;20108;-69
2022/08/15 01:41:33;;;;;;;6.00;3.53;;;;;;;;;;4209333;33;20125;-68
2022/08/15 01:44:11;;;;;;;16.80;3.12;;;;;;;;;;4260982;33;20119;-69
2022/08/15 01:46:42;;;;;;;8.73;3.08;;;;;;;;;;4247963;33;20112;-69
2022/08/15 01:49:16;;;;;;;11.90;3.92;;;;;;;;;;4247795;33;20123;-70
2022/08/15 01:51:43;;;;;;;9.50;3.17;;;;;;;;;;4235883;33;20104;-69
2022/08/15 01:54:13;;;;;;;12.88;3.85;;;;;;;;;;4260893;33;20104;-68
2022/08/15 01:56:45;;;;;;;6.25;3.40;;;;;;;;;;4247706;33;20127;-70
2022/08/15 01:59:14;;;;;;;9.73;3.45;;;;;;;;;;4247992;33;20520;-69
2022/08/15 02:01:47;;;;;;;8.48;3.67;;;;;;;;;;4236162;33;20525;-69
2022/08/15 02:04:15;;;;;;;8.10;3.15;;;;;;;;;;4247752;33;20108;-69
2022/08/15 02:06:41;;;;;;;14.75;2.78;;;;;;;;;;4258933;33;20115;-69
2022/08/15 02:09:11;;;;;;;5.93;2.60;;;;;;;;;;4245160;33;20120;-70
2022/08/15 02:11:37;;;;;;;9.15;3.22;;;;;;;;;;4247566;33;20096;-69
2022/08/15 02:14:03;;;;;;;30.62;5.20;;;;;;;;;;4247486;33;20551;-69
2022/08/15 02:16:35;;;;;;;11.05;3.70;;;;;;;;;;4247426;33;20627;-69
2022/08/15 02:19:03;;;;;;;9.55;2.70;;;;;;;;;;4260523;33;20132;-69
2022/08/15 02:21:29;;;;;;;4.43;2.40;;;;;;;;;;4247338;33;20203;-69
2022/08/15 02:23:56;;;;;;;3.58;2.97;;;;;;;;;;4246842;33;21039;-68
2022/08/15 02:26:22;;;;;;;6.12;2.70;;;;;;;;;;4260367;33;20111;-69
2022/08/15 02:28:49;;;;;;;11.30;2.92;;;;;;;;;;4260439;33;20109;-69
2022/08/15 02:31:24;;;;;;;5.03;2.53;;;;;;;;;;4259761;33;20120;-69
2022/08/15 02:33:53;;;;;;;11.43;2.60;;;;;;;;;;4247699;33;20134;-69
2022/08/15 02:36:20;;;;;;;7.60;2.53;;;;;;;;;;4259819;33;20129;-68
2022/08/15 02:38:49;;;;;;;3.78;2.67;;;;;;;;;;4258826;33;20143;-69
2022/08/15 02:41:30;;;;;;;5.72;2.25;;;;;;;;;;4260275;33;20523;-69
2022/08/15 02:43:57;;;;;;;8.05;2.70;;;;;;;;;;4247436;33;20531;-69
2022/08/15 02:46:23;;;;;;;13.82;2.92;;;;;;;;;;4260460;33;20225;-69
2022/08/15 02:48:50;;;;;;;7.78;2.78;;;;;;;;;;4260310;33;20135;-69
2022/08/15 02:51:17;;;;;;;16.23;2.92;;;;;;;;;;4247107;33;20230;-69
2022/08/15 02:53:49;;;;;;;5.03;2.95;;;;;;;;;;4247250;33;21034;-69
2022/08/15 02:56:17;;;;;;;4.97;2.80;;;;;;;;;;4246837;33;20096;-69
2022/08/15 02:58:44;;;;;;;13.32;3.42;;;;;;;;;;4235440;33;20092;-69
2022/08/15 03:01:11;;;;;;;6.22;2.80;;;;;;;;;;4246960;33;20563;-68
2022/08/15 03:03:42;;;;;;;5.78;2.55;;;;;;;;;;4260121;33;20116;-70
2022/08/15 03:06:10;;;;;;;7.50;2.80;;;;;;;;;;4260072;33;20182;-69
2022/08/15 03:08:37;;;;;;;3.83;2.83;;;;;;;;;;4246813;33;20099;-69
2022/08/15 03:11:04;;;;;;;6.90;3.03;;;;;;;;;;4247115;33;20115;-69
2022/08/15 03:13:31;;;;;;;10.38;3.05;;;;;;;;;;4246875;33;20112;-70
2022/08/15 03:15:58;;;;;;;7.90;3.47;;;;;;;;;;4259876;33;20127;-69
2022/08/15 03:18:27;;;;;;;13.65;3.97;;;;;;;;;;4246846;33;20125;-68
2022/08/15 03:20:53;;;;;;;9.18;3.30;;;;;;;;;;4246446;33;20211;-69
2022/08/15 03:23:21;;;;;;;9.90;3.28;;;;;;;;;;4259849;33;20187;-67
2022/08/15 03:25:51;;;;;;;9.50;3.28;;;;;;;;;;4258595;33;20187;-68
2022/08/15 03:28:18;;;;;;;8.13;3.70;;;;;;;;;;4257826;33;20184;-69
2022/08/15 03:30:44;;;;;;;9.07;4.37;;;;;;;;;;4259325;33;20448;-72
2022/08/15 03:33:11;;;;;;;12.35;4.55;;;;;;;;;;4260038;33;20196;-71
2022/08/15 03:35:43;;;;;;;10.07;4.72;;;;;;;;;;4259647;33;20119;-72
2022/08/15 03:38:09;;;;;;;20.52;5.55;;;;;;;;;;4248715;33;20135;-71
2022/08/15 03:40:36;;;;;;;20.52;6.80;;;;;;;;;;4246363;33;20115;-72
2022/08/15 03:43:08;;;;;;;18.65;5.72;;;;;;;;;;4234787;33;20198;-71
2022/08/15 03:45:34;;;;;;;12.05;5.85;;;;;;;;;;4248620;33;20190;-73
2022/08/15 03:48:02;;;;;;;19.50;6.37;;;;;;;;;;4261910;33;20145;-69
2022/08/15 03:50:29;;;;;;;15.02;6.07;;;;;;;;;;4248868;33;20108;-70
2022/08/15 03:52:58;;;;;;;18.70;7.57;;;;;;;;;;4248147;33;20107;-74
2022/08/15 03:55:27;;;;;;;21.77;7.47;;;;;;;;;;4248884;33;20085;-68
2022/08/15 03:57:53;;;;;;;15.43;6.47;;;;;;;;;;4259792;33;20088;-72
2022/08/15 04:00:24;;;;;;;23.05;9.05;;;;;;;;;;4234495;33;20212;-68
2022/08/15 04:02:50;;;;;;;26.95;9.88;;;;;;;;;;4248348;33;20732;-67
2022/08/15 04:05:17;;;;;;;30.45;8.32;;;;;;;;;;4261442;33;20562;-67
2022/08/15 04:07:43;;;;;;;37.20;10.00;;;;;;;;;;4261417;33;20101;-68
2022/08/15 04:10:12;;;;;;;32.33;10.18;;;;;;;;;;4261323;33;20111;-68
2022/08/15 04:12:41;;;;;;;36.15;11.35;;;;;;;;;;4248684;33;20507;-68
2022/08/15 04:15:10;;;;;;;52.42;12.77;;;;;;;;;;4262060;33;20120;-67
2022/08/15 04:17:36;;;;;;;40.50;12.13;;;;;;;;;;4248608;33;20509;-68
2022/08/15 04:20:02;;;;;;;38.50;13.62;;;;;;;;;;4260695;33;20191;-69
2022/08/15 04:22:34;;;;;;;52.42;16.55;;;;;;;;;;4261202;33;20120;-69
2022/08/15 04:25:02;;;;;;;54.13;16.25;;;;;;;;;;4249285;33;20188;-69
2022/08/15 04:27:28;;;;;;;58.60;17.50;;;;;;;;;;4260727;33;20566;-68
2022/08/15 04:29:54;;;;;;;55.20;16.45;;;;;;;;;;4261789;33;20146;-70
2022/08/15 04:32:23;;;;;;;38.67;11.50;;;;;;;;;;4260258;33;20103;-69
2022/08/15 04:34:49;;;;;;;25.30;8.77;;;;;;;;;;4248155;33;20097;-69
2022/08/15 04:37:15;;;;;;;30.10;9.57;;;;;;;;;;4261514;33;20114;-69
2022/08/15 04:39:41;;;;;;;39.13;13.05;;;;;;;;;;4261257;33;20100;-69
2022/08/15 04:42:08;;;;;;;36.00;13.32;;;;;;;;;;4261643;33;20115;-70
2022/08/15 04:44:36;;;;;;;41.15;13.13;;;;;;;;;;4261701;33;20524;-70
2022/08/15 04:47:02;;;;;;;33.33;12.63;;;;;;;;;;4236056;33;20521;-70
2022/08/15 04:49:28;;;;;;;45.03;14.45;;;;;;;;;;4261361;33;20112;-69
2022/08/15 04:51:54;;;;;;;27.73;9.32;;;;;;;;;;4261509;33;20480;-71
2022/08/15 04:54:20;;;;;;;18.83;6.80;;;;;;;;;;4248341;33;20531;-70
2022/08/15 04:56:46;;;;;;;24.55;7.85;;;;;;;;;;4261344;33;20187;-70
2022/08/15 04:59:13;;;;;;;19.42;6.97;;;;;;;;;;4261045;33;20211;-68
2022/08/15 05:01:39;;;;;;;6.35;3.20;;;;;;;;;;4238617;33;20095;-69
2022/08/15 05:04:05;;;;;;;10.10;3.03;;;;;;;;;;4261349;33;20101;-70
2022/08/15 05:06:31;;;;;;;3.42;2.47;;;;;;;;;;4247982;33;20196;-69
2022/08/15 05:08:58;;;;;;;7.68;2.67;;;;;;;;;;4261413;33;20134;-69
2022/08/15 05:11:24;;;;;;;3.50;2.30;;;;;;;;;;4248369;33;20108;-69
2022/08/15 05:13:52;;;;;;;5.25;2.50;;;;;;;;;;4261087;33;20116;-68
2022/08/15 05:16:19;;;;;;;8.30;2.78;;;;;;;;;;4260677;33;20097;-69
2022/08/15 05:18:45;;;;;;;5.97;2.53;;;;;;;;;;4260558;33;20646;-69
2022/08/15 05:21:12;;;;;;;6.25;2.72;;;;;;;;;;4260566;33;20097;-69
2022/08/15 05:23:39;;;;;;;5.07;2.55;;;;;;;;;;4259164;33;20586;-69
2022/08/15 05:26:06;;;;;;;5.53;2.70;;;;;;;;;;4269183;33;20116;-69
2022/08/15 05:28:32;;;;;;;3.60;2.33;;;;;;;;;;4247464;33;20136;-69
2022/08/15 05:30:59;;;;;;;4.78;2.33;;;;;;;;;;4271626;33;20103;-68
2022/08/15 05:33:28;;;;;;;8.73;2.78;;;;;;;;;;4247955;33;20101;-69
2022/08/15 05:35:56;;;;;;;2.58;2.12;;;;;;;;;;4271368;33;20199;-68
2022/08/15 05:38:25;;;;;;;3.37;2.47;;;;;;;;;;4260746;33;20135;-69
2022/08/15 05:41:14;;;;;;;3.90;2.28;;;;;;;;;;4247909;33;20100;-68
2022/08/15 05:43:51;;;;;;;8.43;2.97;;;;;;;;;;4236167;33;20120;-68
2022/08/15 05:46:26;;;;;;;2.95;2.20;;;;;;;;;;4260998;33;20109;-67
2022/08/15 05:49:08;;;;;;;4.25;2.55;;;;;;;;;;4260999;33;20595;-67
2022/08/15 05:51:48;;;;;;;3.45;2.40;;;;;;;;;;4247844;33;20349;-67
2022/08/15 05:54:40;;;;;;;9.48;2.60;;;;;;;;;;4247887;33;20558;-68
2022/08/15 05:57:29;;;;;;;2.33;1.83;;;;;;;;;;4260968;33;20111;-68
2022/08/15 06:00:12;;;;;;;3.30;1.73;;;;;;;;;;4247028;33;20179;-70
2022/08/15 06:02:54;;;;;;;3.50;2.45;;;;;;;;;;4235856;33;20115;-70
2022/08/15 06:05:24;;;;;;;3.45;1.73;;;;;;;;;;4235867;33;20120;-71
2022/08/15 06:07:52;;;;;;;6.50;2.08;;;;;;;;;;4260778;33;20297;-71
2022/08/15 06:10:29;;;;;;;4.37;2.45;;;;;;;;;;4235682;33;20111;-71
2022/08/15 06:13:12;;;;;;;6.50;1.90;;;;;;;;;;4247553;33;20116;-72
2022/08/15 06:15:48;;;;;;;5.82;2.03;;;;;;;;;;4247418;33;20109;-71
2022/08/15 06:18:16;;;;;;;2.40;1.87;;;;;;;;;;4247763;33;20575;-72
2022/08/15 06:21:06;;;;;;;3.03;1.70;;;;;;;;;;4247626;33;20116;-70
2022/08/15 06:23:35;;;;;;;1.17;1.12;;;;;;;;;;4260587;33;20112;-71
2022/08/15 06:26:11;;;;;;;2.37;1.73;;;;;;;;;;4235600;33;20097;-71
2022/08/15 06:29:02;;;;;;;7.85;2.50;;;;;;;;;;4260431;33;20097;-71
2022/08/15 06:31:34;;;;;;;2.58;1.92;;;;;;;;;;4235610;33;20112;-70
2022/08/15 06:34:28;;;;;;;6.65;2.50;;;;;;;;;;4235753;33;20131;-71
2022/08/15 06:37:12;;;;;;;16.45;2.83;;;;;;;;;;4247545;33;20092;-68
2022/08/15 06:39:40;;;;;;;1.30;1.20;;;;;;;;;;4260267;33;20131;-70
2022/08/15 06:42:12;;;;;;;3.05;2.10;;;;;;;;;;4260563;33;20091;-67
2022/08/15 06:44:38;;;;;;;2.40;1.90;;;;;;;;;;4260389;33;20263;-69
2022/08/15 06:47:05;;;;;;;6.62;2.20;;;;;;;;;;4235451;33;20119;-69
2022/08/15 06:49:33;;;;;;;5.57;1.42;;;;;;;;;;4260218;33;20196;-69
2022/08/15 06:51:59;;;;;;;2.72;2.20;;;;;;;;;;4260263;33;20734;-69
2022/08/15 06:54:27;;;;;;;5.53;2.35;;;;;;;;;;4247460;33;20107;-68
2022/08/15 06:57:08;;;;;;;3.30;2.00;;;;;;;;;;4247093;33;20135;-69
2022/08/15 07:00:09;;;;;;;3.08;1.95;;;;;;;;;;4224008;33;20472;-69
2022/08/15 07:02:56;;;;;;;4.35;2.03;;;;;;;;;;4244809;33;20092;-71
2022/08/15 07:05:40;;;;;;;3.58;2.47;;;;;;;;;;4260201;33;20487;-70
2022/08/15 07:08:09;;;;;;;4.18;2.15;;;;;;;;;;4247426;33;20108;-71
2022/08/15 07:10:57;;;;;;;3.33;2.17;;;;;;;;;;4260982;33;20116;-71
2022/08/15 07:13:33;;;;;;;9.57;2.75;;;;;;;;;;4249442;33;20120;-69
2022/08/15 07:16:03;;;;;;;3.37;1.92;;;;;;;;;;4248918;33;20116;-69
2022/08/15 07:18:38;;;;;;;3.53;2.20;;;;;;;;;;4237186;33;20122;-69
2022/08/15 07:21:12;;;;;;;;;;;;;;;;;;4237865;33;20434;-71
2022/08/15 07:24:01;;;;;;;13.13;2.50;;;;;;;;;;4237426;33;20004;-70
2022/08/15 07:26:29;;;;;;;4.65;1.90;;;;;;;;;;4249195;33;20131;-70
2022/08/15 07:29:01;;;;;;;1.52;1.42;;;;;;;;;;4262174;33;20108;-71
2022/08/15 07:31:33;;;;;;;6.53;2.30;;;;;;;;;;4249446;33;20102;-72
2022/08/15 07:34:16;;;;;;;6.00;2.22;;;;;;;;;;4237528;33;20115;-72
2022/08/15 07:36:56;;;;;;;8.63;2.28;;;;;;;;;;4249049;33;20120;-71
2022/08/15 07:39:40;;;;;;;3.17;2.50;;;;;;;;;;4261861;33;20112;-73
2022/08/15 07:42:15;;;;;;;6.87;2.28;;;;;;;;;;4249373;33;20432;-74
2022/08/15 07:44:57;;;;;;;2.22;1.98;;;;;;;;;;4249046;33;20236;-74
2022/08/15 07:47:26;;;;;;;3.37;1.95;;;;;;;;;;4262059;33;20126;-74
2022/08/15 07:50:04;;;;;;;10.10;2.03;;;;;;;;;;4261818;33;20104;-74
2022/08/15 07:52:30;;;;;;;2.65;1.98;;;;;;;;;;4262001;33;20543;-72
2022/08/15 07:54:59;;;;;;;6.62;2.25;;;;;;;;;;4248700;33;20196;-73
2022/08/15 07:57:26;;;;;;;4.05;2.58;;;;;;;;;;4248808;33;20441;-73
2022/08/15 08:00:15;;;;;;;4.28;1.67;;;;;;;;;;4248635;33;20126;-74
2022/08/15 08:02:50;;;;;;;5.53;2.30;;;;;;;;;;4245902;33;20132;-72
2022/08/15 08:05:16;;;;;;;7.32;1.92;;;;;;;;;;4244708;33;20546;-72
2022/08/15 08:07:44;;;;;;;1.15;1.10;;;;;;;;;;4260287;33;20109;-66
2022/08/15 08:10:18;;;;;;;13.43;4.07;;;;;;;;;;4249103;33;20223;-68
2022/08/15 08:12:53;;;;;;;5.95;2.22;;;;;;;;;;4262186;33;20226;-68
2022/08/15 08:15:19;;;;;;;6.70;2.30;;;;;;;;;;4248497;33;20130;-68
2022/08/15 08:17:48;;;;;;;14.23;2.40;;;;;;;;;;4262206;33;20544;-68
2022/08/15 08:20:37;;;;;;;3.20;2.12;;;;;;;;;;4261840;33;20131;-68
2022/08/15 08:23:19;;;;;;;5.43;2.08;;;;;;;;;;4261059;33;20123;-68
2022/08/15 08:26:03;;;;;;;1.45;1.35;;;;;;;;;;4248486;33;20139;-68
2022/08/15 08:28:43;;;;;;;5.10;2.20;;;;;;;;;;4261832;33;20144;-67
2022/08/15 08:31:54;;;;;;;3.47;2.37;;;;;;;;;;4261924;33;20111;-69
2022/08/15 08:34:39;;;;;;;7.43;2.10;;;;;;;;;;4231733;33;20211;-68
2022/08/15 08:37:24;;;;;;;7.22;2.10;;;;;;;;;;4261789;33;20202;-71
2022/08/15 08:43:15;;;;;;;1.87;1.33;;;;;;;;;;4250257;33;20540;-70
2022/08/15 08:45:52;;;;;;;9.38;2.50;;;;;;;;;;4261333;33;20515;-70
2022/08/15 08:48:20;;;;;;;4.55;2.28;;;;;;;;;;4261477;33;20092;-70
2022/08/15 08:50:58;;;;;;;2.33;2.12;;;;;;;;;;4261327;33;20629;-70
2022/08/15 08:53:40;;;;;;;3.35;2.53;;;;;;;;;;4261355;33;20188;-71
2022/08/15 08:56:22;;;;;;;4.25;2.40;;;;;;;;;;4261650;33;20123;-70
2022/08/15 08:59:01;;;;;;;5.22;1.77;;;;;;;;;;4236487;33;20520;-69
2022/08/15 09:01:27;;;;;;;9.55;2.30;;;;;;;;;;4248409;33;20085;-70
2022/08/15 09:04:02;;;;;;;2.92;2.20;;;;;;;;;;4248176;33;20140;-70
2022/08/15 09:06:36;;;;;;;8.93;2.72;;;;;;;;;;4261285;33;20119;-70
2022/08/15 09:09:05;;;;;;;2.15;1.27;;;;;;;;;;4248177;33;20774;-71
2022/08/15 09:11:40;;;;;;;3.37;2.20;;;;;;;;;;4261601;33;20116;-70
2022/08/15 09:14:34;;;;;;;3.40;2.15;;;;;;;;;;4248136;33;20102;-70
2022/08/15 09:17:19;;;;;;;2.37;1.85;;;;;;;;;;4248366;33;20207;-70
2022/08/15 09:19:52;;;;;;;9.43;2.45;;;;;;;;;;4247955;33;20532;-74
2022/08/15 09:22:19;;;;;;;17.85;4.78;;;;;;;;;;4246403;33;20204;-70
2022/08/15 09:24:45;;;;;;;2.33;1.37;;;;;;;;;;4244738;33;20131;-71
2022/08/15 09:27:25;;;;;;;6.22;2.45;;;;;;;;;;4245003;33;20139;-74
2022/08/15 09:29:56;;;;;;;4.57;2.10;;;;;;;;;;4232840;33;20532;-71
2022/08/15 09:32:28;;;;;;;3.45;2.22;;;;;;;;;;4244800;33;20484;-72
2022/08/15 09:35:24;;;;;;;2.45;1.83;;;;;;;;;;4257884;33;20206;-71
2022/08/15 09:38:09;;;;;;;2.65;2.12;;;;;;;;;;4244653;33;20602;-74
2022/08/15 09:40:44;;;;;;;2.03;1.83;;;;;;;;;;4244507;33;20135;-74
2022/08/15 09:43:18;;;;;;;9.32;2.60;;;;;;;;;;4244912;33;20130;-69
2022/08/15 09:45:52;;;;;;;3.00;2.10;;;;;;;;;;4245656;33;20108;-69
2022/08/15 09:48:41;;;;;;;2.62;1.67;;;;;;;;;;4261280;33;20088;-74
2022/08/15 09:51:16;;;;;;;3.15;1.37;;;;;;;;;;4247781;33;20123;-72
2022/08/15 09:54:01;;;;;;;4.90;2.12;;;;;;;;;;4247722;33;20085;-70
2022/08/15 09:56:30;;;;;;;11.12;2.28;;;;;;;;;;4248089;33;20112;-72
2022/08/15 09:59:08;;;;;;;7.10;2.03;;;;;;;;;;4247656;33;20144;-72
2022/08/15 10:01:51;;;;;;;2.65;1.85;;;;;;;;;;4260907;33;20135;-72
2022/08/15 10:04:22;;;;;;;5.18;1.80;;;;;;;;;;4247957;33;20124;-72
2022/08/15 10:07:35;;;;;;;3.90;1.95;;;;;;;;;;4247961;33;20120;-71
2022/08/15 10:10:01;;;;;;;9.63;2.05;;;;;;;;;;4260823;33;20198;-73
2022/08/15 10:12:28;;;;;;;3.87;1.77;;;;;;;;;;4260784;33;20144;-72
2022/08/15 10:15:24;;;;;;;1.62;1.37;;;;;;;;;;4247910;33;20104;-73
2022/08/15 10:17:51;;;;;;;1.83;1.70;;;;;;;;;;4248644;33;20161;-71
2022/08/15 10:20:16;;;;;;;6.10;2.25;;;;;;;;;;4260484;33;20443;-72
2022/08/15 10:22:50;;;;;;;8.95;2.67;;;;;;;;;;4247596;33;20101;-72
2022/08/15 10:25:20;;;;;;;8.70;2.25;;;;;;;;;;4247581;33;20540;-70
2022/08/15 10:27:52;;;;;;;2.37;1.80;;;;;;;;;;4247666;33;20111;-70
2022/08/15 10:30:18;;;;;;;7.82;1.20;;;;;;;;;;4260616;33;20104;-69
2022/08/15 10:32:44;;;;;;;4.55;1.27;;;;;;;;;;4247426;33;20116;-70
2022/08/15 10:35:26;;;;;;;1.50;1.30;;;;;;;;;;4247514;33;20136;-70
2022/08/15 10:37:57;;;;;;;1.60;1.50;;;;;;;;;;4235745;33;20218;-69
2022/08/15 10:40:44;;;;;;;4.40;1.77;;;;;;;;;;4247386;33;20106;-74
2022/08/15 10:43:25;;;;;;;4.75;1.98;;;;;;;;;;4260377;33;20112;-73
2022/08/15 10:46:13;;;;;;;5.05;1.98;;;;;;;;;;4247270;33;20135;-73
2022/08/15 10:49:03;;;;;;;5.12;2.00;;;;;;;;;;4247499;33;20122;-73
2022/08/15 10:51:39;;;;;;;10.25;2.90;;;;;;;;;;4247461;33;20626;-76
2022/08/15 10:54:38;;;;;;;4.75;2.50;;;;;;;;;;4260205;33;20123;-71
2022/08/15 10:57:05;;;;;;;6.30;2.10;;;;;;;;;;4260598;33;20206;-70
2022/08/15 10:59:42;;;;;;;3.10;1.73;;;;;;;;;;4247050;33;20119;-70
2022/08/15 11:02:34;;;;;;;2.10;1.70;;;;;;;;;;4247209;33;20115;-69
2022/08/15 11:05:06;;;;;;;3.90;2.20;;;;;;;;;;4235459;33;20104;-68
2022/08/15 11:07:37;;;;;;;3.95;2.20;;;;;;;;;;4260441;33;20104;-67
2022/08/15 11:10:08;;;;;;;5.62;2.33;;;;;;;;;;4259963;33;20524;-70
2022/08/15 11:12:36;;;;;;;3.20;2.10;;;;;;;;;;4260134;33;20536;-71
2022/08/15 11:15:19;;;;;;;7.25;2.17;;;;;;;;;;4247003;33;20203;-68
2022/08/15 11:18:00;;;;;;;2.83;2.12;;;;;;;;;;4260084;33;20202;-70
2022/08/15 11:20:35;;;;;;;2.05;1.85;;;;;;;;;;4247034;33;20195;-69
2022/08/15 11:23:01;;;;;;;2.45;2.15;;;;;;;;;;4259899;33;20111;-69
2022/08/15 11:25:31;;;;;;;2.42;2.10;;;;;;;;;;4246939;33;20100;-69
2022/08/15 11:28:02;;;;;;;6.90;2.30;;;;;;;;;;4260030;33;20210;-70
2022/08/15 11:30:32;;;;;;;2.08;1.80;;;;;;;;;;4246684;33;20084;-72
2022/08/15 11:33:24;;;;;;;4.30;2.15;;;;;;;;;;4246970;33;20206;-69
2022/08/15 11:36:04;;;;;;;6.60;2.92;;;;;;;;;;4246446;33;20285;-68
2022/08/15 11:38:31;;;;;;;3.47;1.98;;;;;;;;;;4259758;33;20489;-65
2022/08/15 11:40:59;;;;;;;3.30;2.10;;;;;;;;;;4246711;33;20103;-69
2022/08/15 11:43:26;;;;;;;3.35;2.28;;;;;;;;;;4246736;33;20215;-67
2022/08/15 11:45:53;;;;;;;3.53;2.15;;;;;;;;;;4259607;33;20080;-69
2022/08/15 11:48:26;;;;;;;2.58;2.00;;;;;;;;;;4259730;33;20120;-70
2022/08/15 11:51:03;;;;;;;8.25;2.50;;;;;;;;;;4246615;33;20099;-68
2022/08/15 11:53:31;;;;;;;5.10;2.20;;;;;;;;;;4235057;33;20192;-68
2022/08/15 11:55:58;;;;;;;4.10;1.85;;;;;;;;;;4259688;33;20119;-67
2022/08/15 11:58:38;;;;;;;2.35;1.65;;;;;;;;;;4261426;33;20120;-70
2022/08/15 12:01:44;;;;;;;2.70;2.05;;;;;;;;;;4249459;33;20583;-70
2022/08/15 12:04:12;;;;;;;2.25;1.75;;;;;;;;;;4203306;34;20266;-70
2022/08/15 12:06:40;;;;;;;3.25;2.95;;;;;;;;;;4192015;34;20110;-70
2022/08/15 12:09:11;;;;;;;2.95;2.25;;;;;;;;;;4220579;33;20112;-71
2022/08/15 12:11:51;;;;;;;4.12;2.40;;;;;;;;;;4248803;33;20188;-68
2022/08/15 12:14:23;;;;;;;3.92;2.20;;;;;;;;;;4261904;33;20126;-68
2022/08/15 12:17:00;;;;;;;2.85;1.95;;;;;;;;;;4248825;33;20182;-70
2022/08/15 12:19:29;;;;;;;6.70;2.12;;;;;;;;;;4248707;33;20127;-71
2022/08/15 12:22:13;;;;;;;3.22;2.20;;;;;;;;;;4261678;33;20526;-69
2022/08/15 12:24:43;;;;;;;2.33;1.80;;;;;;;;;;4261952;33;20119;-69
2022/08/15 12:27:13;;;;;;;3.45;2.33;;;;;;;;;;4236888;33;20093;-68
2022/08/15 12:29:40;;;;;;;6.05;1.80;;;;;;;;;;4248830;33;20531;-68
2022/08/15 12:32:07;;;;;;;2.65;2.00;;;;;;;;;;4248494;33;20122;-67
2022/08/15 12:34:36;;;;;;;1.95;1.62;;;;;;;;;;4261249;33;20493;-67
2022/08/15 12:37:06;;;;;;;5.20;2.40;;;;;;;;;;4248357;33;20117;-68
2022/08/15 12:39:35;;;;;;;10.43;2.50;;;;;;;;;;4248219;33;20195;-68
2022/08/15 12:42:01;;;;;;;5.07;2.10;;;;;;;;;;4261753;33;20108;-69
2022/08/15 12:44:34;;;;;;;3.25;2.10;;;;;;;;;;4261582;33;20120;-70
2022/08/15 12:47:00;;;;;;;10.05;1.92;;;;;;;;;;4261591;33;20089;-67
2022/08/15 12:49:27;;;;;;;3.42;2.20;;;;;;;;;;4261210;33;20120;-67
2022/08/15 12:51:52;;;;;;;3.90;2.00;;;;;;;;;;4261412;33;20513;-69
2022/08/15 12:54:19;;;;;;;4.43;2.85;;;;;;;;;;4261375;33;20126;-69
2022/08/15 12:56:45;;;;;;;3.62;2.08;;;;;;;;;;4261646;33;20097;-67
2022/08/15 12:59:12;;;;;;;6.60;1.92;;;;;;;;;;4261262;33;20095;-67
2022/08/15 13:01:40;;;;;;;6.85;2.05;;;;;;;;;;4248096;33;20134;-67
2022/08/15 13:04:10;;;;;;;1.20;1.10;;;;;;;;;;4248210;33;20120;-67
2022/08/15 13:06:42;;;;;;;2.15;1.83;;;;;;;;;;4261250;33;20187;-68
2022/08/15 13:09:09;;;;;;;4.22;1.87;;;;;;;;;;4248319;33;20210;-68
2022/08/15 13:11:37;;;;;;;5.12;1.80;;;;;;;;;;4248312;33;20138;-67
2022/08/15 13:14:03;;;;;;;2.50;2.28;;;;;;;;;;4248011;33;20116;-71
2022/08/15 13:16:30;;;;;;;2.55;1.75;;;;;;;;;;4248086;33;20112;-70
2022/08/15 13:18:57;;;;;;;7.25;2.20;;;;;;;;;;4247884;33;20204;-70
2022/08/15 13:24:27;;;;;;;2.58;2.05;;;;;;;;;;4230321;33;20208;-73
2022/08/15 13:26:54;;;;;;;2.40;1.95;;;;;;;;;;4230525;33;20120;-74
2022/08/15 13:29:20;;;;;;;5.60;2.10;;;;;;;;;;4244791;33;20204;-68
2022/08/15 13:31:46;;;;;;;5.65;2.20;;;;;;;;;;4247967;33;20116;-72
2022/08/15 13:34:13;;;;;;;5.05;1.83;;;;;;;;;;4247800;33;20112;-69
2022/08/15 13:36:40;;;;;;;3.67;1.92;;;;;;;;;;4261024;33;20532;-69
2022/08/15 13:39:12;;;;;;;5.95;2.78;;;;;;;;;;4247759;33;20518;-68
2022/08/15 13:41:39;;;;;;;2.65;1.85;;;;;;;;;;4260996;33;20131;-69
2022/08/15 13:44:06;;;;;;;3.37;1.80;;;;;;;;;;4247842;33;20207;-72
2022/08/15 13:46:32;;;;;;;3.00;2.17;;;;;;;;;;4247838;33;20134;-73
2022/08/15 13:48:58;;;;;;;4.53;2.15;;;;;;;;;;4260968;33;20100;-72
2022/08/15 13:51:30;;;;;;;2.20;2.00;;;;;;;;;;4261159;33;20133;-71
2022/08/15 13:53:58;;;;;;;2.50;2.10;;;;;;;;;;4248257;33;20100;-71
2022/08/15 13:56:25;;;;;;;2.30;1.83;;;;;;;;;;4260887;33;20085;-70
2022/08/15 13:58:51;;;;;;;3.53;2.10;;;;;;;;;;4260632;33;20127;-71
2022/08/15 14:01:23;;;;;;;2.92;2.00;;;;;;;;;;4260988;33;20508;-68
2022/08/15 14:03:59;;;;;;;4.60;1.90;;;;;;;;;;4260760;33;20184;-71
2022/08/15 14:06:26;;;;;;;2.53;1.92;;;;;;;;;;4247819;33;20144;-70
2022/08/15 14:08:53;;;;;;;2.37;1.90;;;;;;;;;;4236354;33;20135;-67
2022/08/15 14:11:22;;;;;;;4.72;1.92;;;;;;;;;;4247777;33;20108;-67
2022/08/15 14:13:48;;;;;;;3.70;1.92;;;;;;;;;;4247507;33;20116;-67
2022/08/15 14:16:14;;;;;;;4.10;1.85;;;;;;;;;;4260573;33;20119;-67
2022/08/15 14:18:41;;;;;;;6.93;2.10;;;;;;;;;;4260416;33;20107;-66
2022/08/15 14:21:09;;;;;;;3.03;1.90;;;;;;;;;;4259777;33;20112;-66
2022/08/15 14:23:35;;;;;;;1.90;1.77;;;;;;;;;;4247291;33;20105;-70
2022/08/15 14:26:03;;;;;;;1.98;1.48;;;;;;;;;;4260632;33;20116;-70
2022/08/15 14:28:29;;;;;;;2.25;1.55;;;;;;;;;;4260524;33;20092;-69
2022/08/15 14:30:56;;;;;;;5.37;1.98;;;;;;;;;;4260549;33;20131;-68
2022/08/15 14:33:24;;;;;;;4.78;2.30;;;;;;;;;;4260469;33;20739;-71
2022/08/15 14:35:53;;;;;;;3.45;2.03;;;;;;;;;;4247312;33;20219;-68
2022/08/15 14:38:21;;;;;;;7.82;2.42;;;;;;;;;;4260537;33;20081;-70
2022/08/15 14:40:47;;;;;;;3.35;1.90;;;;;;;;;;4260277;33;20110;-70
2022/08/15 14:43:14;;;;;;;7.65;2.22;;;;;;;;;;4247516;33;20120;-70
2022/08/15 14:45:40;;;;;;;4.47;2.15;;;;;;;;;;4260358;33;20094;-69
2022/08/15 14:48:11;;;;;;;3.55;2.35;;;;;;;;;;4246542;33;20108;-69
2022/08/15 14:50:37;;;;;;;5.15;1.92;;;;;;;;;;4260365;33;20108;-67
2022/08/15 14:53:04;;;;;;;9.80;2.05;;;;;;;;;;4245809;33;20195;-68
2022/08/15 14:55:31;;;;;;;4.55;2.00;;;;;;;;;;4258020;33;20194;-68
2022/08/15 14:57:58;;;;;;;12.10;2.37;;;;;;;;;;4244882;33;20115;-68
2022/08/15 15:00:24;;;;;;;7.40;2.00;;;;;;;;;;4258071;33;20128;-67
2022/08/15 15:02:54;;;;;;;7.75;2.60;;;;;;;;;;4258002;33;20123;-67
2022/08/15 15:05:21;;;;;;;6.60;2.10;;;;;;;;;;4244613;33;20202;-67
2022/08/15 15:07:47;;;;;;;5.22;2.03;;;;;;;;;;4254374;33;20120;-67
2022/08/15 15:10:15;;;;;;;10.13;2.40;;;;;;;;;;4230467;33;20123;-68
2022/08/15 15:12:42;;;;;;;2.17;1.80;;;;;;;;;;4252168;33;20485;-68
2022/08/15 15:15:09;;;;;;;1.48;1.37;;;;;;;;;;4253359;33;20155;-70
2022/08/15 15:17:35;;;;;;;10.05;2.35;;;;;;;;;;4242285;33;20132;-67
2022/08/15 15:20:02;;;;;;;4.85;2.20;;;;;;;;;;4254836;33;20132;-68
2022/08/15 15:22:28;;;;;;;3.85;2.03;;;;;;;;;;4258608;33;20267;-67
2022/08/15 15:24:54;;;;;;;4.68;2.45;;;;;;;;;;4245852;33;20271;-67
2022/08/15 15:27:20;;;;;;;3.42;2.25;;;;;;;;;;4259830;33;20084;-66
2022/08/15 15:29:47;;;;;;;6.05;2.40;;;;;;;;;;4246931;33;20536;-67
2022/08/15 15:32:14;;;;;;;4.87;2.55;;;;;;;;;;4261437;33;20097;-69
2022/08/15 15:34:40;;;;;;;3.17;2.20;;;;;;;;;;4261981;33;20132;-66
2022/08/15 15:37:06;;;;;;;8.02;3.15;;;;;;;;;;4262125;33;20115;-66
2022/08/15 15:39:32;;;;;;;5.12;2.17;;;;;;;;;;4249064;33;20120;-68
2022/08/15 15:41:59;;;;;;;3.70;2.17;;;;;;;;;;4262243;33;20112;-68
2022/08/15 15:44:26;;;;;;;7.93;2.33;;;;;;;;;;4248797;33;20211;-68